CheckWX is a tool to help pilots better visualize weather data.  It is not intended as a substitute for an official pre-flight weather briefing.

01:39:59 UTC

KLEW METAR
Auburn / Lewiston Municipal Airport
Auburn/Lewiston, Maine, USA
Current

30 mins ago

KLEW 150110Z AUTO 19003KT 10SM BKN010 OVC014 13/12 A2995 RMK AO2 CIG 008V011
Observed
Oct-15 @ 01:10 UTC
Wind
  • 190° at 3 KTS
Visibility
10 SM
Flight Rules
MVFR
Cloud Levels
  • Broken at 1,000' AGL
  • Overcast at 1,400' AGL
Temperature
13°C / 55°F
Dewpoint
12°C / 54°F
Humidity
94%
Altimeter
29.95" Hg
Pressure
1014.22 hPa
Previous

44 mins ago

KLEW 150056Z AUTO 20003KT 10SM OVC008 13/12 A2995 RMK AO2 SLP150 T01330122
Observed
Oct-15 @ 00:56 UTC
Wind
  • 200° at 3 KTS
Visibility
10 SM
Flight Rules
IFR
Cloud Levels
  • Overcast at 800' AGL
Temperature
13°C / 55°F
Dewpoint
12°C / 54°F
Humidity
94%
Altimeter
29.95" Hg
Pressure
1014.22 hPa
Previous

1 hour ago

KLEW 150012Z AUTO 16004KT 10SM BKN008 OVC014 13/12 A2993 RMK AO2 CIG 007V012
Observed
Oct-15 @ 00:12 UTC
Wind
  • 160° at 4 KTS
Visibility
10 SM
Flight Rules
IFR
Cloud Levels
  • Broken at 800' AGL
  • Overcast at 1,400' AGL
Temperature
13°C / 55°F
Dewpoint
12°C / 54°F
Humidity
94%
Altimeter
29.93" Hg
Pressure
1013.52 hPa